createdAt,value
2022-08-19T00:02:05.814Z,93.15
2022-08-19T00:04:37.702Z,93.63
2022-08-19T00:07:07.871Z,94.25
2022-08-19T00:09:36.827Z,95.07
2022-08-19T00:12:07.377Z,95.07
2022-08-19T00:14:36.188Z,95.88
2022-08-19T00:17:07.442Z,95.55
2022-08-19T00:19:38.112Z,96.08
2022-08-19T00:22:07.439Z,96.23
2022-08-19T00:24:39.392Z,96.54
2022-08-19T00:27:24.987Z,96.85
2022-08-19T00:29:53.978Z,97.12
2022-08-19T00:32:23.050Z,96.93
2022-08-19T00:34:54.499Z,96.73
2022-08-19T00:37:24.741Z,97.00
2022-08-19T00:39:54.863Z,97.42
2022-08-19T00:42:27.003Z,97.67
2022-08-19T00:44:55.899Z,97.94
2022-08-19T00:47:24.740Z,98.39
2022-08-19T00:50:00.200Z,98.55
2022-08-19T00:52:35.577Z,98.52
2022-08-19T00:55:07.492Z,98.42
2022-08-19T00:57:45.626Z,98.12
2022-08-19T01:00:20.338Z,98.50
2022-08-19T01:02:49.320Z,98.61
2022-08-19T01:05:24.916Z,98.33
2022-08-19T01:07:55.556Z,98.18
2022-08-19T01:10:30.711Z,98.42
2022-08-19T01:13:05.385Z,97.63
2022-08-19T01:15:45.608Z,98.03
2022-08-19T01:18:18.755Z,99.14
2022-08-19T01:20:48.109Z,99.31
2022-08-19T01:23:18.895Z,99.56
2022-08-19T01:25:53.104Z,99.28
2022-08-19T01:28:33.894Z,99.70
2022-08-19T01:31:08.540Z,99.89
2022-08-19T01:33:37.300Z,100.00
2022-08-19T01:36:10.284Z,100.00
2022-08-19T01:38:44.298Z,100.00
2022-08-19T01:41:14.260Z,100.00
2022-08-19T01:44:13.912Z,100.00
2022-08-19T01:46:32.360Z,100.00
2022-08-19T01:49:02.025Z,100.00
2022-08-19T01:51:31.274Z,100.00
2022-08-19T01:54:11.052Z,100.00
2022-08-19T01:56:40.190Z,100.00
2022-08-19T01:59:16.644Z,100.00
2022-08-19T02:01:45.628Z,100.00
2022-08-19T02:04:15.556Z,100.00
2022-08-19T02:06:44.239Z,99.43
2022-08-19T02:09:14.340Z,99.27
2022-08-19T02:11:44.542Z,99.35
2022-08-19T02:14:13.113Z,99.32
2022-08-19T02:16:41.879Z,98.94
2022-08-19T02:19:11.402Z,99.25
2022-08-19T02:21:39.968Z,99.44
2022-08-19T02:24:09.186Z,99.17
2022-08-19T02:26:39.084Z,99.13
2022-08-19T02:29:10.472Z,99.31
2022-08-19T02:31:39.026Z,99.18
2022-08-19T02:34:07.609Z,99.38
2022-08-19T02:36:36.575Z,98.92
2022-08-19T02:39:10.719Z,99.37
2022-08-19T02:41:40.864Z,99.06
2022-08-19T02:44:29.824Z,99.37
2022-08-19T02:46:58.672Z,99.78
2022-08-19T02:49:27.227Z,99.88
2022-08-19T02:51:56.022Z,100.00
2022-08-19T02:54:24.901Z,99.83
2022-08-19T02:56:54.766Z,99.73
2022-08-19T02:59:23.677Z,100.00
2022-08-19T03:01:52.496Z,100.00
2022-08-19T03:04:22.340Z,100.00
2022-08-19T03:06:51.441Z,100.00
2022-08-19T03:09:22.301Z,100.00
2022-08-19T03:11:52.686Z,100.00
2022-08-19T03:14:24.194Z,100.00
2022-08-19T03:16:54.334Z,100.00
2022-08-19T03:19:23.572Z,100.00
2022-08-19T03:21:53.389Z,100.00
2022-08-19T03:24:23.245Z,100.00
2022-08-19T03:26:58.594Z,100.00
2022-08-19T03:29:32.003Z,100.00
2022-08-19T03:32:04.921Z,100.00
2022-08-19T03:34:36.166Z,100.00
2022-08-19T03:37:09.169Z,100.00
2022-08-19T03:39:39.990Z,100.00
2022-08-19T03:42:47.863Z,100.00
2022-08-19T03:44:59.564Z,100.00
2022-08-19T03:47:28.493Z,100.00
2022-08-19T03:49:57.031Z,99.80
2022-08-19T03:52:25.614Z,99.04
2022-08-19T03:54:54.391Z,98.97
2022-08-19T03:57:24.432Z,98.63
2022-08-19T04:00:04.072Z,99.11
2022-08-19T04:02:42.914Z,98.39
2022-08-19T04:05:29.515Z,98.57
2022-08-19T04:07:59.881Z,98.61
2022-08-19T04:10:29.261Z,97.88
2022-08-19T04:12:58.004Z,98.24
2022-08-19T04:15:29.844Z,97.36
2022-08-19T04:17:58.645Z,97.03
2022-08-19T04:20:27.194Z,97.16
2022-08-19T04:22:55.929Z,96.49
2022-08-19T04:25:24.710Z,95.12
2022-08-19T04:27:53.340Z,94.44
2022-08-19T04:30:23.571Z,94.34
2022-08-19T04:32:53.767Z,93.76
2022-08-19T04:35:24.926Z,93.28
2022-08-19T04:37:53.852Z,92.85
2022-08-19T04:40:42.397Z,91.73
2022-08-19T04:43:16.683Z,91.83
2022-08-19T04:45:45.741Z,91.01
2022-08-19T04:48:26.295Z,90.09
2022-08-19T04:50:59.426Z,89.25
2022-08-19T04:53:37.468Z,88.72
2022-08-19T04:56:13.547Z,86.82
2022-08-19T04:58:46.135Z,87.06
2022-08-19T05:01:16.511Z,86.52
2022-08-19T05:03:46.879Z,87.00
2022-08-19T05:06:18.939Z,86.86
2022-08-19T05:08:48.545Z,86.91
2022-08-19T05:11:26.235Z,86.20
2022-08-19T05:13:55.995Z,86.60
2022-08-19T05:16:27.480Z,86.55
2022-08-19T05:19:16.187Z,86.14
2022-08-19T05:22:03.497Z,87.19
2022-08-19T05:24:34.553Z,86.51
2022-08-19T05:27:06.553Z,87.22
2022-08-19T05:29:36.657Z,86.86
2022-08-19T05:32:09.281Z,86.69
2022-08-19T05:34:40.518Z,87.98
2022-08-19T05:37:10.005Z,86.88
2022-08-19T05:39:41.528Z,86.45
2022-08-19T05:42:13.213Z,86.48
2022-08-19T05:44:45.472Z,85.64
2022-08-19T05:47:16.167Z,85.51
2022-08-19T05:49:46.393Z,85.32
2022-08-19T05:52:18.975Z,85.39
2022-08-19T05:54:52.009Z,85.50
2022-08-19T05:57:21.691Z,86.25
2022-08-19T05:59:52.684Z,86.08
2022-08-19T06:02:22.014Z,85.92
2022-08-19T06:04:51.926Z,83.61
2022-08-19T06:07:21.221Z,83.18
2022-08-19T06:10:00.667Z,81.21
2022-08-19T06:12:34.036Z,80.66
2022-08-19T06:15:05.722Z,80.74
2022-08-19T06:17:35.879Z,80.72
2022-08-19T06:20:09.779Z,80.93
2022-08-19T06:22:40.937Z,81.81
2022-08-19T06:25:11.189Z,80.54
2022-08-19T06:27:58.661Z,79.74
2022-08-19T06:30:29.731Z,80.59
2022-08-19T06:32:58.504Z,79.45
2022-08-19T06:35:30.504Z,79.78
2022-08-19T06:37:59.718Z,79.34
2022-08-19T06:40:28.564Z,79.78
2022-08-19T06:42:57.386Z,80.38
2022-08-19T06:45:34.581Z,79.12
2022-08-19T06:48:05.172Z,79.32
2022-08-19T06:50:35.102Z,77.69
2022-08-19T06:53:08.122Z,77.60
2022-08-19T06:55:36.676Z,76.71
2022-08-19T06:58:06.243Z,77.28
2022-08-19T07:00:35.784Z,73.52
2022-08-19T07:03:08.490Z,70.04
2022-08-19T07:05:45.724Z,67.90
2022-08-19T07:08:15.242Z,67.04
2022-08-19T07:10:49.005Z,65.44
2022-08-19T07:13:17.564Z,64.56
2022-08-19T07:15:48.004Z,66.02
2022-08-19T07:18:17.018Z,66.80
2022-08-19T07:20:47.112Z,65.81
2022-08-19T07:23:16.666Z,64.92
2022-08-19T07:25:53.186Z,65.03
2022-08-19T07:28:24.286Z,62.40
2022-08-19T07:30:53.938Z,62.41
2022-08-19T07:33:24.368Z,62.48
2022-08-19T07:35:57.936Z,58.02
2022-08-19T07:38:26.911Z,56.04
2022-08-19T07:40:55.938Z,55.07
2022-08-19T07:43:33.438Z,52.38
2022-08-19T07:46:04.615Z,51.80
2022-08-19T07:48:33.627Z,51.90
2022-08-19T07:51:08.540Z,51.93
2022-08-19T07:53:40.047Z,52.72
2022-08-19T07:56:08.808Z,55.33
2022-08-19T07:58:43.008Z,54.90
2022-08-19T08:01:15.247Z,53.43
2022-08-19T08:04:02.165Z,53.73
2022-08-19T08:06:49.821Z,53.12
2022-08-19T08:09:26.228Z,52.48
2022-08-19T08:12:01.977Z,52.36
2022-08-19T08:14:39.945Z,50.10
2022-08-19T08:17:13.802Z,48.54
2022-08-19T08:19:44.189Z,47.83
2022-08-19T08:22:33.260Z,46.88
2022-08-19T08:25:06.847Z,47.35
2022-08-19T08:27:40.550Z,49.16
2022-08-19T08:30:11.878Z,48.97
2022-08-19T08:32:42.461Z,47.48
2022-08-19T08:35:17.622Z,48.16
2022-08-19T08:37:51.300Z,48.62
2022-08-19T08:40:32.885Z,46.94
2022-08-19T08:43:11.629Z,47.74
2022-08-19T08:45:53.467Z,46.45
2022-08-19T08:48:34.760Z,45.75
2022-08-19T08:51:09.651Z,46.89
2022-08-19T08:53:42.559Z,46.21
2022-08-19T08:56:14.060Z,45.84
2022-08-19T08:59:00.714Z,45.98
2022-08-19T09:01:30.822Z,44.61
2022-08-19T09:04:02.777Z,43.39
2022-08-19T09:06:40.961Z,43.35
2022-08-19T09:09:20.855Z,41.67
2022-08-19T09:12:06.726Z,41.31
2022-08-19T09:14:50.773Z,40.72
2022-08-19T09:17:29.167Z,40.57
2022-08-19T09:20:03.450Z,41.40
2022-08-19T09:22:32.445Z,41.41
2022-08-19T09:25:02.761Z,41.62
2022-08-19T09:27:42.781Z,41.79
2022-08-19T09:30:27.579Z,42.04
2022-08-19T09:32:57.376Z,41.61
2022-08-19T09:35:30.644Z,41.42
2022-08-19T09:38:01.464Z,41.13
2022-08-19T09:40:37.731Z,41.20
2022-08-19T09:43:09.915Z,40.93
2022-08-19T09:45:40.091Z,40.73
2022-08-19T09:48:09.601Z,40.17
2022-08-19T09:50:51.865Z,40.04
2022-08-19T09:53:25.102Z,39.97
2022-08-19T09:55:57.841Z,38.69
2022-08-19T09:58:28.820Z,39.79
2022-08-19T10:00:58.508Z,39.07
2022-08-19T10:03:30.241Z,38.35
2022-08-19T10:06:01.627Z,39.68
2022-08-19T10:08:33.931Z,39.30
2022-08-19T10:11:27.289Z,38.20
2022-08-19T10:13:55.142Z,37.19
2022-08-19T10:16:30.342Z,37.93
2022-08-19T10:19:00.334Z,38.01
2022-08-19T10:21:36.304Z,38.84
2022-08-19T10:24:09.372Z,38.85
2022-08-19T10:26:46.218Z,39.15
2022-08-19T10:29:32.544Z,39.48
2022-08-19T10:32:03.496Z,38.32
2022-08-19T10:34:34.331Z,38.55
2022-08-19T10:37:03.832Z,40.28
2022-08-19T10:39:43.429Z,38.52
2022-08-19T10:42:14.743Z,38.59
2022-08-19T10:44:43.820Z,39.31
2022-08-19T10:47:17.914Z,39.59
2022-08-19T10:50:13.316Z,38.61
2022-08-19T10:52:49.249Z,38.24
2022-08-19T10:55:41.028Z,39.06
2022-08-19T10:58:16.297Z,39.72
2022-08-19T11:00:52.710Z,38.38
2022-08-19T11:03:21.621Z,37.99
2022-08-19T11:06:00.529Z,38.81
2022-08-19T11:08:29.723Z,39.45
2022-08-19T11:11:04.089Z,38.34
2022-08-19T11:13:38.324Z,38.42
2022-08-19T11:16:11.373Z,38.99
2022-08-19T11:18:44.778Z,40.07
2022-08-19T11:21:19.965Z,39.39
2022-08-19T11:23:52.180Z,38.29
2022-08-19T11:26:23.162Z,39.11
2022-08-19T11:28:55.328Z,41.00
2022-08-19T11:31:29.303Z,40.56
2022-08-19T11:34:00.654Z,40.93
2022-08-19T11:36:30.620Z,41.31
2022-08-19T11:38:59.298Z,41.00
2022-08-19T11:41:28.610Z,41.32
2022-08-19T11:43:58.772Z,42.64
2022-08-19T11:46:30.421Z,42.38
2022-08-19T11:49:00.370Z,42.49
2022-08-19T11:51:29.924Z,42.59
2022-08-19T11:54:01.110Z,43.43
2022-08-19T11:56:30.359Z,43.12
2022-08-19T11:59:03.980Z,42.40
2022-08-19T12:01:33.432Z,43.66
2022-08-19T12:04:02.631Z,43.88
2022-08-19T12:06:35.779Z,44.60
2022-08-19T12:09:09.337Z,44.52
2022-08-19T12:11:39.304Z,44.89
2022-08-19T12:14:15.139Z,44.72
2022-08-19T12:16:51.390Z,43.87
2022-08-19T12:19:22.258Z,44.61
2022-08-19T12:21:54.012Z,44.07
2022-08-19T12:24:24.484Z,45.32
2022-08-19T12:26:54.453Z,46.07
2022-08-19T12:29:29.444Z,44.58
2022-08-19T12:32:02.247Z,43.46
2022-08-19T12:34:34.630Z,44.43
2022-08-19T12:37:07.335Z,43.81
2022-08-19T12:39:43.065Z,43.28
2022-08-19T12:42:13.364Z,43.79
2022-08-19T12:44:45.942Z,42.54
2022-08-19T12:47:15.715Z,43.08
2022-08-19T12:49:54.062Z,43.77
2022-08-19T12:52:26.838Z,44.73
2022-08-19T12:54:58.247Z,44.25
2022-08-19T12:57:32.782Z,44.98
2022-08-19T13:00:11.715Z,42.54
2022-08-19T13:02:41.681Z,43.76
2022-08-19T13:05:16.831Z,43.70
2022-08-19T13:07:45.813Z,43.82
2022-08-19T13:10:18.599Z,44.14
2022-08-19T13:12:49.985Z,44.24
2022-08-19T13:15:24.469Z,44.41
2022-08-19T13:17:56.766Z,44.36
2022-08-19T13:20:27.025Z,44.68
2022-08-19T13:22:58.229Z,44.36
2022-08-19T13:25:27.649Z,43.68
2022-08-19T13:27:56.956Z,44.57
2022-08-19T13:30:44.762Z,43.31
2022-08-19T13:33:16.093Z,43.58
2022-08-19T13:35:50.133Z,43.62
2022-08-19T13:38:22.091Z,43.92
2022-08-19T13:40:53.778Z,43.28
2022-08-19T13:43:27.969Z,43.44
2022-08-19T13:45:57.996Z,43.13
2022-08-19T13:48:28.393Z,43.45
2022-08-19T13:50:57.065Z,42.57
2022-08-19T13:53:25.800Z,43.04
2022-08-19T13:55:54.981Z,43.01
2022-08-19T13:58:24.603Z,43.16
2022-08-19T14:00:53.427Z,42.71
2022-08-19T14:03:24.602Z,42.63
2022-08-19T14:05:53.300Z,42.06
2022-08-19T14:08:22.182Z,42.41
2022-08-19T14:10:51.478Z,41.91
2022-08-19T14:13:23.499Z,41.72
2022-08-19T14:15:54.135Z,43.19
2022-08-19T14:18:26.104Z,42.51
2022-08-19T14:20:57.806Z,42.56
2022-08-19T14:23:27.618Z,43.30
2022-08-19T14:26:05.531Z,42.97
2022-08-19T14:28:34.326Z,42.90
2022-08-19T14:31:02.962Z,43.54
2022-08-19T14:33:33.101Z,43.14
2022-08-19T14:36:02.552Z,43.24
2022-08-19T14:38:32.499Z,43.98
2022-08-19T14:41:14.836Z,43.32
2022-08-19T14:43:43.637Z,44.94
2022-08-19T14:46:13.652Z,43.39
2022-08-19T14:48:47.062Z,43.65
2022-08-19T14:51:21.369Z,43.13
2022-08-19T14:53:50.736Z,44.56
2022-08-19T14:56:25.818Z,43.52
2022-08-19T14:58:55.460Z,43.67
2022-08-19T15:01:24.942Z,44.44
2022-08-19T15:03:55.688Z,44.70
2022-08-19T15:06:25.872Z,44.24
2022-08-19T15:08:55.443Z,44.02
2022-08-19T15:11:28.768Z,44.32
2022-08-19T15:13:58.533Z,43.32
2022-08-19T15:16:28.765Z,44.08
2022-08-19T15:19:01.413Z,43.56
2022-08-19T15:21:31.776Z,43.52
2022-08-19T15:24:02.615Z,43.68
2022-08-19T15:26:33.385Z,43.52
2022-08-19T15:29:03.066Z,43.13
2022-08-19T15:31:35.133Z,42.59
2022-08-19T15:34:06.887Z,42.45
2022-08-19T15:36:36.262Z,43.31
2022-08-19T15:39:07.367Z,42.29
2022-08-19T15:41:37.023Z,42.87
2022-08-19T15:44:10.985Z,42.48
2022-08-19T15:46:43.841Z,43.19
2022-08-19T15:49:16.510Z,43.98
2022-08-19T15:51:49.392Z,43.69
2022-08-19T15:54:21.614Z,44.17
2022-08-19T15:57:09.648Z,43.62
2022-08-19T16:00:00.774Z,44.53
2022-08-19T16:02:53.610Z,44.42
2022-08-19T16:05:45.899Z,44.59
2022-08-19T16:08:15.514Z,44.79
2022-08-19T16:10:44.251Z,44.95
2022-08-19T16:13:12.803Z,44.82
2022-08-19T16:15:42.018Z,45.03
2022-08-19T16:18:10.627Z,44.99
2022-08-19T16:20:40.524Z,45.11
2022-08-19T16:23:09.380Z,45.50
2022-08-19T16:25:39.408Z,46.32
2022-08-19T16:28:09.903Z,45.37
2022-08-19T16:30:41.796Z,45.57
2022-08-19T16:33:11.757Z,45.99
2022-08-19T16:35:42.109Z,46.48
2022-08-19T16:38:11.564Z,45.89
2022-08-19T16:40:43.757Z,46.29
2022-08-19T16:43:15.152Z,46.73
2022-08-19T16:45:44.097Z,47.23
2022-08-19T16:48:12.780Z,47.91
2022-08-19T16:50:49.608Z,47.47
2022-08-19T16:53:21.308Z,48.23
2022-08-19T16:55:57.578Z,47.85
2022-08-19T16:58:29.185Z,48.21
2022-08-19T17:01:03.893Z,48.70
2022-08-19T17:03:36.408Z,48.84
2022-08-19T17:06:18.412Z,48.58
2022-08-19T17:08:51.089Z,48.75
2022-08-19T17:11:22.568Z,48.94
2022-08-19T17:13:51.804Z,49.12
2022-08-19T17:16:25.551Z,49.76
2022-08-19T17:18:55.749Z,49.78
2022-08-19T17:21:29.409Z,49.61
2022-08-19T17:23:59.039Z,50.08
2022-08-19T17:26:30.305Z,50.15
2022-08-19T17:29:00.603Z,50.31
2022-08-19T17:31:32.789Z,49.73
2022-08-19T17:34:01.607Z,50.66
2022-08-19T17:36:35.225Z,51.10
2022-08-19T17:39:05.625Z,51.03
2022-08-19T17:41:35.275Z,51.03
2022-08-19T17:44:05.157Z,51.71
2022-08-19T17:46:34.003Z,51.59
2022-08-19T17:49:02.882Z,51.82
2022-08-19T17:51:46.155Z,51.94
2022-08-19T17:54:19.268Z,52.65
2022-08-19T17:56:48.801Z,52.99
2022-08-19T17:59:17.649Z,53.33
2022-08-19T18:01:53.065Z,53.02
2022-08-19T18:04:25.728Z,53.29
2022-08-19T18:06:56.165Z,52.97
2022-08-19T18:09:27.036Z,53.69
2022-08-19T18:11:58.007Z,53.93
2022-08-19T18:14:34.091Z,54.27
2022-08-19T18:17:09.651Z,53.75
2022-08-19T18:19:43.311Z,54.62
2022-08-19T18:22:25.326Z,54.49
2022-08-19T18:24:54.747Z,54.95
2022-08-19T18:27:23.812Z,54.99
2022-08-19T18:29:52.482Z,55.43
2022-08-19T18:32:24.070Z,56.03
2022-08-19T18:34:54.065Z,56.47
2022-08-19T18:37:26.367Z,56.97
2022-08-19T18:40:12.362Z,57.18
2022-08-19T18:43:02.051Z,57.14
2022-08-19T18:45:48.883Z,57.65
2022-08-19T18:48:35.487Z,57.75
2022-08-19T18:51:04.918Z,57.86
2022-08-19T18:53:38.931Z,58.18
2022-08-19T18:56:10.081Z,57.93
2022-08-19T18:58:40.172Z,58.06
2022-08-19T19:01:14.872Z,58.68
2022-08-19T19:03:49.116Z,58.38
2022-08-19T19:06:22.523Z,58.43
2022-08-19T19:08:54.971Z,59.07
2022-08-19T19:11:27.876Z,58.78
2022-08-19T19:13:57.765Z,58.59
2022-08-19T19:16:26.445Z,58.73
2022-08-19T19:18:55.653Z,59.32
2022-08-19T19:21:30.792Z,59.34
2022-08-19T19:24:03.049Z,59.44
2022-08-19T19:26:31.931Z,59.39
2022-08-19T19:29:00.549Z,60.26
2022-08-19T19:31:29.229Z,60.55
2022-08-19T19:33:58.213Z,60.82
2022-08-19T19:36:27.420Z,61.07
2022-08-19T19:38:55.979Z,61.39
2022-08-19T19:41:26.323Z,61.15
2022-08-19T19:44:29.459Z,62.42
2022-08-19T19:46:48.214Z,61.93
2022-08-19T19:49:16.865Z,61.63
2022-08-19T19:51:45.405Z,61.96
2022-08-19T19:54:14.831Z,62.51
2022-08-19T19:56:45.442Z,62.74
2022-08-19T19:59:14.661Z,62.32
2022-08-19T20:01:46.124Z,62.98
2022-08-19T20:04:17.772Z,62.71
2022-08-19T20:06:47.933Z,62.91
2022-08-19T20:09:19.931Z,63.35
2022-08-19T20:11:54.361Z,63.28
2022-08-19T20:14:28.681Z,63.57
2022-08-19T20:17:00.049Z,63.35
2022-08-19T20:19:34.237Z,63.72
2022-08-19T20:22:04.247Z,64.15
2022-08-19T20:24:36.538Z,64.51
2022-08-19T20:27:07.184Z,64.52
2022-08-19T20:29:39.148Z,64.90
2022-08-19T20:32:10.102Z,64.61
2022-08-19T20:34:40.250Z,64.53
2022-08-19T20:37:09.871Z,65.30
2022-08-19T20:39:39.172Z,65.11
2022-08-19T20:42:09.277Z,64.73
2022-08-19T20:44:38.128Z,64.79
2022-08-19T20:47:07.465Z,64.93
2022-08-19T20:49:36.272Z,65.14
2022-08-19T20:52:06.569Z,64.64
2022-08-19T20:54:35.700Z,64.72
2022-08-19T20:57:05.495Z,65.29
2022-08-19T20:59:37.209Z,65.22
2022-08-19T21:02:06.304Z,64.95
2022-08-19T21:04:34.922Z,64.94
2022-08-19T21:07:03.507Z,65.21
2022-08-19T21:09:32.240Z,64.78
2022-08-19T21:12:01.065Z,64.80
2022-08-19T21:14:29.738Z,64.46
2022-08-19T21:16:59.877Z,64.93
2022-08-19T21:19:28.532Z,64.81
2022-08-19T21:21:57.132Z,65.05
2022-08-19T21:24:30.185Z,64.58
2022-08-19T21:27:00.906Z,64.80
2022-08-19T21:29:32.089Z,64.99
2022-08-19T21:32:02.015Z,64.73
2022-08-19T21:34:30.936Z,64.80
2022-08-19T21:36:59.522Z,64.93
2022-08-19T21:39:28.811Z,65.30
2022-08-19T21:41:57.631Z,64.57
2022-08-19T21:44:26.243Z,64.77
2022-08-19T21:46:54.789Z,65.44
2022-08-19T21:49:24.997Z,65.03
2022-08-19T21:51:53.573Z,65.00
2022-08-19T21:54:22.128Z,64.88
2022-08-19T21:56:50.880Z,65.22
2022-08-19T21:59:21.946Z,65.11
2022-08-19T22:02:05.615Z,65.23
2022-08-19T22:04:42.403Z,65.91
2022-08-19T22:07:14.180Z,66.34
2022-08-19T22:09:45.213Z,66.67
2022-08-19T22:12:25.550Z,66.59
2022-08-19T22:14:55.634Z,66.13
2022-08-19T22:17:27.459Z,66.25
2022-08-19T22:19:58.585Z,66.27
2022-08-19T22:22:31.896Z,66.14
2022-08-19T22:25:06.734Z,66.39
2022-08-19T22:27:36.492Z,66.52
2022-08-19T22:30:10.037Z,66.82
2022-08-19T22:32:39.711Z,67.34
2022-08-19T22:35:10.343Z,67.26
2022-08-19T22:37:38.919Z,66.90
2022-08-19T22:40:09.509Z,67.54
2022-08-19T22:42:38.889Z,67.21
2022-08-19T22:45:11.046Z,67.16
2022-08-19T22:47:40.952Z,67.68
2022-08-19T22:50:13.910Z,67.68
2022-08-19T22:52:51.936Z,67.52
2022-08-19T22:55:20.876Z,67.73
2022-08-19T22:57:49.658Z,67.46
2022-08-19T23:00:18.258Z,67.55
2022-08-19T23:02:51.405Z,67.82
2022-08-19T23:05:26.148Z,68.32
2022-08-19T23:07:58.245Z,68.16
2022-08-19T23:10:29.061Z,68.38
2022-08-19T23:13:00.600Z,68.42
2022-08-19T23:15:34.272Z,68.22
2022-08-19T23:18:05.570Z,68.37
2022-08-19T23:20:39.287Z,67.66
2022-08-19T23:23:12.091Z,62.67
2022-08-19T23:25:42.958Z,61.24
2022-08-19T23:28:28.956Z,62.25
2022-08-19T23:30:57.744Z,62.29
2022-08-19T23:33:39.761Z,66.82
2022-08-19T23:36:23.386Z,69.40
2022-08-19T23:38:53.050Z,70.04
2022-08-19T23:41:24.214Z,64.73
2022-08-19T23:43:55.052Z,62.68
2022-08-19T23:46:28.264Z,66.80
2022-08-19T23:48:57.416Z,68.49
2022-08-19T23:51:27.511Z,70.19
2022-08-19T23:53:56.135Z,71.47
2022-08-19T23:56:24.736Z,71.59
2022-08-19T23:58:53.524Z,73.11
